Flights from Thursday April 2, 2026

The table below shows the detailed information of all trackers on Thursday Apr 2, 2026.

Ident Type CommentCommentDate
Jogger JP3CZF Jogger Jogger HELLO!??????????????????????????? Thu, 02 Apr 2026 08:06:23 +0900 2/4/2026 8:06 am
Jogger JO6BWP Jogger Jogger / Thu, 02 Apr 2026 08:07:00 +0900 2/4/2026 8:07 am
Jogger JG1JZL-7 Jogger Jogger TXC:1 Temp: 21.27F Humid:52.01% Batt: 3.8V Thu, 02 Apr 2026 08:12:20 +0900 2/4/2026 8:12 am
Jogger JN3NZW-H Jogger Jogger Rig:ID-52 Ant.Power:5W Thu, 02 Apr 2026 08:17:00 +0900 2/4/2026 8:17 am
Jogger JA3FQO Jogger Jogger / Thu, 02 Apr 2026 08:38:50 +0900 2/4/2026 8:38 am
Jogger JP3HBQ Jogger Jogger /OSAKA SENNAN / SADAHISA???????????????????? Thu, 02 Apr 2026 08:52:29 +0900 2/4/2026 8:52 am
Jogger JA1DRE-A Jogger Jogger D-STAR & 439.64 JR1WM Thu, 02 Apr 2026 09:09:00 +0900 2/4/2026 9:09 am
Jeep JR1JDS-9 Jeep Jeep Thu, 02 Apr 2026 15:36:15 +0900 2/4/2026 3:36 pm
Jeep JL4LRL-5 Jeep Jeep /439.540MHz @AWAI Thu, 02 Apr 2026 21:06:37 +0900 2/4/2026 9:06 pm
Jeep JL4LRL-5 Jeep Jeep /439.540MHz @AWAI Thu, 02 Apr 2026 07:20:27 +0900 2/4/2026 7:20 am
Firetruck JM3TPK-14 Firetruck Firetruck D-star Rpt. Rx now ! Thu, 02 Apr 2026 10:02:13 +0900 2/4/2026 10:02 am
Firetruck JM3TPK-14 Firetruck Firetruck D-star Rpt. Rx now ! Thu, 02 Apr 2026 11:17:45 +0900 2/4/2026 11:17 am
Firetruck JM3TPK-14 Firetruck Firetruck D-star Rpt. Rx now ! Thu, 02 Apr 2026 13:01:08 +0900 2/4/2026 1:01 pm
Firetruck JM3TPK-14 Firetruck Firetruck D-star Rpt. Rx now ! Thu, 02 Apr 2026 04:25:59 +0900 2/4/2026 4:25 am
Car JJ3FUH-9 Car Car wires x13357 {UIV32N} Thu, 02 Apr 2026 09:12:51 +0900 2/4/2026 9:12 am
Car JA5CVU-12 Car Car Thu, 02 Apr 2026 09:15:32 +0900 2/4/2026 9:15 am
Car JP1FUB-9 Car Car PHG0000 Thu, 02 Apr 2026 09:16:25 +0900 2/4/2026 9:16 am
Car JE1MLP-12 Car Car / Thu, 02 Apr 2026 09:18:05 +0900 2/4/2026 9:18 am
Car JR4DYZ-12 Car Car Thu, 02 Apr 2026 09:25:41 +0900 2/4/2026 9:25 am
Car JE2VQT-D Car Car JE2VQT D?PRS Thu, 02 Apr 2026 09:25:00 +0900 2/4/2026 9:25 am
Car JI6QOV-12 Car Car Thu, 02 Apr 2026 09:44:42 +0900 2/4/2026 9:44 am
Car JH1TWC-9 Car Car / Thu, 02 Apr 2026 09:47:00 +0900 2/4/2026 9:47 am
Car JM3TPK Car Car Thu, 02 Apr 2026 10:16:00 +0900 2/4/2026 10:16 am
Car JO2IQS-A Car Car / Thu, 02 Apr 2026 10:56:21 +0900 2/4/2026 10:56 am
Car 7N4XSL-B Car Car / Thu, 02 Apr 2026 10:56:32 +0900 2/4/2026 10:56 am